createdAt,value
2017-05-26T00:02:17.476Z,6.43
2017-05-26T00:04:45.720Z,6.65
2017-05-26T00:07:13.981Z,5.67
2017-05-26T00:09:42.236Z,7.22
2017-05-26T00:12:10.492Z,6.32
2017-05-26T00:14:38.726Z,6.58
2017-05-26T00:17:06.985Z,5.97
2017-05-26T00:19:35.225Z,6.98
2017-05-26T00:22:03.464Z,6.73
2017-05-26T00:24:31.719Z,6.67
2017-05-26T00:26:59.955Z,6.85
2017-05-26T00:29:28.224Z,7.23
2017-05-26T00:31:56.468Z,8.00
2017-05-26T00:34:24.704Z,8.52
2017-05-26T00:36:52.963Z,7.12
2017-05-26T00:39:21.230Z,7.82
2017-05-26T00:41:49.500Z,6.87
2017-05-26T00:44:17.758Z,7.43
2017-05-26T00:46:46.026Z,7.15
2017-05-26T00:49:14.288Z,8.48
2017-05-26T00:51:42.532Z,7.22
2017-05-26T00:54:10.796Z,6.97
2017-05-26T00:56:39.069Z,6.52
2017-05-26T00:59:07.312Z,7.87
2017-05-26T01:01:35.577Z,6.78
2017-05-26T01:04:03.841Z,7.30
2017-05-26T01:06:32.077Z,6.17
2017-05-26T01:09:00.341Z,7.22
2017-05-26T01:11:28.611Z,6.65
2017-05-26T01:13:56.865Z,6.38
2017-05-26T01:16:25.108Z,7.23
2017-05-26T01:18:53.382Z,7.53
2017-05-26T01:21:21.621Z,7.55
2017-05-26T01:23:49.869Z,7.67
2017-05-26T01:26:18.133Z,7.72
2017-05-26T01:28:46.373Z,7.93
2017-05-26T01:31:14.637Z,7.57
2017-05-26T01:33:43.580Z,7.87
2017-05-26T01:36:11.876Z,7.22
2017-05-26T01:38:40.117Z,7.60
2017-05-26T01:41:08.392Z,7.42
2017-05-26T01:43:36.633Z,8.78
2017-05-26T01:46:04.900Z,9.00
2017-05-26T01:48:33.141Z,9.25
2017-05-26T01:51:01.408Z,10.70
2017-05-26T01:53:29.658Z,9.32
2017-05-26T01:55:57.897Z,8.55
2017-05-26T01:58:26.157Z,11.68
2017-05-26T02:00:54.421Z,9.20
2017-05-26T02:03:22.669Z,9.60
2017-05-26T02:05:50.917Z,8.77
2017-05-26T02:08:19.193Z,9.70
2017-05-26T02:10:47.437Z,8.58
2017-05-26T02:13:15.677Z,8.73
2017-05-26T02:15:43.937Z,8.95
2017-05-26T02:18:12.176Z,8.42
2017-05-26T02:20:40.444Z,9.27
2017-05-26T02:23:08.686Z,9.22
2017-05-26T02:25:36.962Z,8.03
2017-05-26T02:28:05.203Z,8.22
2017-05-26T02:30:33.443Z,9.22
2017-05-26T02:33:01.704Z,8.48
2017-05-26T02:35:29.950Z,8.43
2017-05-26T02:37:58.204Z,8.48
2017-05-26T02:40:26.448Z,8.48
2017-05-26T02:42:54.703Z,7.67
2017-05-26T02:45:22.952Z,9.32
2017-05-26T02:47:51.214Z,9.35
2017-05-26T02:50:19.482Z,10.12
2017-05-26T02:52:47.734Z,10.00
2017-05-26T02:55:15.994Z,9.68
2017-05-26T02:57:44.237Z,9.88
2017-05-26T03:00:12.500Z,9.40
2017-05-26T03:02:40.752Z,10.47
2017-05-26T03:05:09.001Z,9.60
2017-05-26T03:07:37.266Z,9.68
2017-05-26T03:10:05.513Z,9.72
2017-05-26T03:12:33.764Z,10.40
2017-05-26T03:15:02.018Z,9.03
2017-05-26T03:17:30.281Z,8.90
2017-05-26T03:19:58.525Z,9.28
2017-05-26T03:22:26.773Z,9.87
2017-05-26T03:24:55.045Z,9.75
2017-05-26T03:27:23.301Z,9.40
2017-05-26T03:29:51.569Z,8.83
2017-05-26T03:32:19.811Z,9.90
2017-05-26T03:34:48.057Z,9.22
2017-05-26T03:37:16.317Z,9.58
2017-05-26T03:39:44.576Z,9.00
2017-05-26T03:42:12.829Z,9.85
2017-05-26T03:44:41.086Z,9.87
2017-05-26T03:47:09.353Z,10.03
2017-05-26T03:49:37.613Z,9.77
2017-05-26T03:52:05.853Z,9.95
2017-05-26T03:54:34.121Z,9.98
2017-05-26T03:57:02.391Z,8.78
2017-05-26T03:59:30.636Z,9.37
2017-05-26T04:01:58.876Z,8.98
2017-05-26T04:04:27.133Z,9.53
2017-05-26T04:06:55.384Z,8.02
2017-05-26T04:09:23.637Z,10.22
2017-05-26T04:11:51.909Z,8.50
2017-05-26T04:14:20.163Z,10.23
2017-05-26T04:16:48.409Z,8.77
2017-05-26T04:19:16.677Z,9.85
2017-05-26T04:21:44.933Z,9.85
2017-05-26T04:24:13.209Z,8.90
2017-05-26T04:26:41.476Z,9.82
2017-05-26T04:29:09.737Z,9.70
2017-05-26T04:31:37.996Z,8.73
2017-05-26T04:34:06.249Z,9.80
2017-05-26T04:36:34.505Z,9.85
2017-05-26T04:39:02.749Z,9.78
2017-05-26T04:41:30.998Z,10.12
2017-05-26T04:43:59.273Z,10.03
2017-05-26T04:46:27.512Z,9.78
2017-05-26T04:48:55.754Z,10.67
2017-05-26T04:51:24.019Z,9.73
2017-05-26T04:53:52.269Z,9.67
2017-05-26T04:56:20.535Z,10.78
2017-05-26T04:58:48.799Z,10.37
2017-05-26T05:01:17.062Z,10.47
2017-05-26T05:03:45.305Z,10.40
2017-05-26T05:06:13.682Z,9.33
2017-05-26T05:08:41.926Z,9.67
2017-05-26T05:11:10.198Z,9.12
2017-05-26T05:13:38.440Z,10.45
2017-05-26T05:16:06.690Z,9.90
2017-05-26T05:18:34.957Z,9.87
2017-05-26T05:21:03.217Z,10.40
2017-05-26T05:23:31.477Z,9.33
2017-05-26T05:25:59.718Z,8.67
2017-05-26T05:28:27.988Z,9.08
2017-05-26T05:30:56.244Z,10.37
2017-05-26T05:33:24.508Z,8.95
2017-05-26T05:35:52.768Z,8.62
2017-05-26T05:38:21.006Z,7.73
2017-05-26T05:40:49.249Z,7.48
2017-05-26T05:43:17.517Z,5.12
2017-05-26T05:45:46.253Z,5.08
2017-05-26T05:48:14.501Z,3.92
2017-05-26T05:50:42.761Z,4.20
2017-05-26T05:53:11.030Z,4.07
2017-05-26T05:55:39.285Z,4.57
2017-05-26T05:58:07.545Z,4.53
2017-05-26T06:00:35.794Z,15.73
2017-05-26T06:03:04.057Z,4.47
2017-05-26T06:05:32.300Z,4.15
2017-05-26T06:08:00.536Z,4.07
2017-05-26T06:10:28.801Z,3.85
2017-05-26T06:12:57.046Z,3.63
2017-05-26T06:15:25.360Z,3.45
2017-05-26T06:17:53.626Z,3.53
2017-05-26T06:20:21.865Z,3.18
2017-05-26T06:22:50.134Z,3.55
2017-05-26T06:25:18.369Z,3.20
2017-05-26T06:27:46.647Z,2.93
2017-05-26T06:30:14.897Z,3.87
2017-05-26T06:32:43.169Z,3.83
2017-05-26T06:35:11.412Z,3.35
2017-05-26T06:37:39.663Z,3.23
2017-05-26T06:40:07.970Z,3.72
2017-05-26T06:42:36.200Z,3.43
2017-05-26T06:45:04.461Z,3.87
2017-05-26T06:47:32.705Z,3.22
2017-05-26T06:50:00.973Z,2.74
2017-05-26T06:52:29.215Z,3.00
2017-05-26T06:54:57.488Z,2.16
2017-05-26T06:57:25.733Z,3.26
2017-05-26T06:59:53.977Z,2.00
2017-05-26T07:02:22.241Z,2.82
2017-05-26T07:04:50.493Z,2.14
2017-05-26T07:07:18.750Z,2.28
2017-05-26T07:09:46.993Z,2.12
2017-05-26T07:12:15.265Z,2.26
2017-05-26T07:14:43.518Z,2.26
2017-05-26T07:17:11.763Z,2.54
2017-05-26T07:19:40.027Z,2.22
2017-05-26T07:22:08.267Z,2.02
2017-05-26T07:24:36.528Z,2.32
2017-05-26T07:27:04.788Z,2.00
2017-05-26T07:29:33.052Z,2.30
2017-05-26T07:32:01.292Z,2.36
2017-05-26T07:37:04.303Z,2.38
2017-05-26T07:39:32.539Z,1.82
2017-05-26T07:42:00.905Z,1.90
2017-05-26T07:44:29.141Z,1.80
2017-05-26T07:46:57.401Z,2.32
2017-05-26T07:49:25.656Z,1.92
2017-05-26T07:51:53.883Z,1.90
2017-05-26T07:54:22.140Z,1.70
2017-05-26T07:56:50.397Z,1.74
2017-05-26T07:59:18.658Z,1.98
2017-05-26T08:01:46.909Z,1.52
2017-05-26T08:04:15.167Z,1.40
2017-05-26T08:06:43.409Z,2.06
2017-05-26T08:09:11.655Z,1.70
2017-05-26T08:11:39.916Z,1.50
2017-05-26T08:14:08.150Z,1.30
2017-05-26T08:16:36.409Z,1.80
2017-05-26T08:19:04.672Z,1.40
2017-05-26T08:21:32.932Z,1.54
2017-05-26T08:24:01.173Z,1.64
2017-05-26T08:26:29.417Z,1.54
2017-05-26T08:28:57.684Z,1.58
2017-05-26T08:31:26.047Z,1.50
2017-05-26T08:33:54.295Z,1.50
2017-05-26T08:36:22.545Z,1.42
2017-05-26T08:38:50.792Z,1.10
2017-05-26T08:41:19.033Z,1.10
2017-05-26T08:43:47.306Z,1.28
2017-05-26T08:46:15.552Z,1.26
2017-05-26T08:48:43.888Z,1.40
2017-05-26T08:51:12.267Z,1.42
2017-05-26T08:53:40.502Z,1.60
2017-05-26T08:56:08.753Z,1.36
2017-05-26T08:58:36.994Z,1.56
2017-05-26T09:01:05.252Z,1.48
2017-05-26T09:03:33.496Z,1.30
2017-05-26T09:06:01.743Z,1.28
2017-05-26T09:08:30.004Z,1.84
2017-05-26T09:10:58.245Z,1.50
2017-05-26T09:13:26.500Z,1.50
2017-05-26T09:15:54.751Z,1.40
2017-05-26T09:18:22.996Z,1.40
2017-05-26T09:20:51.257Z,1.42
2017-05-26T09:23:19.493Z,1.68
2017-05-26T09:25:47.784Z,1.50
2017-05-26T09:28:16.124Z,1.68
2017-05-26T09:30:44.406Z,1.40
2017-05-26T09:33:12.653Z,1.40
2017-05-26T09:35:40.958Z,1.64
2017-05-26T09:38:09.221Z,2.06
2017-05-26T09:40:37.461Z,1.30
2017-05-26T09:43:05.713Z,1.50
2017-05-26T09:45:33.952Z,1.62
2017-05-26T09:48:02.205Z,1.50
2017-05-26T09:50:30.465Z,1.74
2017-05-26T09:52:58.733Z,1.40
2017-05-26T09:55:26.977Z,1.22
2017-05-26T09:57:55.217Z,1.20
2017-05-26T10:00:23.530Z,1.58
2017-05-26T10:02:51.772Z,1.90
2017-05-26T10:05:20.021Z,1.54
2017-05-26T10:07:48.276Z,1.52
2017-05-26T10:10:16.521Z,1.72
2017-05-26T10:12:44.780Z,1.60
2017-05-26T10:15:13.033Z,1.46
2017-05-26T10:17:41.289Z,1.50
2017-05-26T10:20:09.569Z,1.50
2017-05-26T10:22:37.807Z,1.50
2017-05-26T10:25:06.057Z,1.66
2017-05-26T10:27:34.313Z,1.44
2017-05-26T10:30:02.569Z,1.30
2017-05-26T10:32:30.833Z,1.60
2017-05-26T10:34:59.090Z,1.30
2017-05-26T10:37:27.325Z,1.60
2017-05-26T10:39:55.599Z,1.40
2017-05-26T10:42:23.832Z,1.44
2017-05-26T10:44:52.063Z,1.44
2017-05-26T10:47:20.320Z,1.40
2017-05-26T10:49:48.564Z,1.50
2017-05-26T10:52:16.821Z,1.46
2017-05-26T10:54:45.058Z,1.40
2017-05-26T10:57:13.321Z,1.24
2017-05-26T10:59:41.555Z,1.24
2017-05-26T11:02:09.817Z,1.42
2017-05-26T11:04:38.057Z,0.90
2017-05-26T11:07:06.319Z,1.22
2017-05-26T11:09:34.557Z,1.40
2017-05-26T11:12:02.794Z,1.60
2017-05-26T11:14:31.052Z,1.50
2017-05-26T11:16:59.305Z,1.38
2017-05-26T11:19:27.564Z,1.50
2017-05-26T11:21:55.809Z,7.08
2017-05-26T11:24:24.150Z,1.32
2017-05-26T11:26:52.392Z,1.68
2017-05-26T11:29:20.653Z,1.30
2017-05-26T11:31:48.913Z,1.50
2017-05-26T11:34:17.157Z,1.36
2017-05-26T11:36:45.413Z,1.80
2017-05-26T11:39:13.668Z,1.70
2017-05-26T11:41:41.912Z,1.30
2017-05-26T11:44:10.151Z,1.30
2017-05-26T11:46:38.409Z,1.80
2017-05-26T11:49:06.670Z,2.12
2017-05-26T11:51:34.928Z,1.70
2017-05-26T11:54:03.197Z,1.38
2017-05-26T11:56:31.457Z,1.88
2017-05-26T11:58:59.700Z,1.54
2017-05-26T12:01:27.945Z,1.60
2017-05-26T12:03:56.206Z,1.60
2017-05-26T12:06:24.449Z,1.76
2017-05-26T12:08:52.707Z,1.40
2017-05-26T12:11:20.952Z,1.70
2017-05-26T12:13:49.228Z,1.94
2017-05-26T12:16:17.466Z,1.50
2017-05-26T12:18:45.696Z,1.32
2017-05-26T12:21:14.023Z,1.48
2017-05-26T12:23:42.261Z,1.30
2017-05-26T12:26:10.525Z,1.42
2017-05-26T12:28:38.783Z,1.84
2017-05-26T12:31:07.133Z,1.40
2017-05-26T12:33:35.377Z,1.50
2017-05-26T12:36:03.632Z,1.40
2017-05-26T12:38:31.873Z,1.32
2017-05-26T12:41:00.137Z,1.50
2017-05-26T12:43:28.397Z,1.36
2017-05-26T12:45:56.637Z,1.16
2017-05-26T12:48:24.896Z,1.52
2017-05-26T12:50:53.137Z,1.40
2017-05-26T12:53:21.385Z,1.70
2017-05-26T12:55:49.653Z,1.56
2017-05-26T12:58:17.902Z,1.60
2017-05-26T13:00:46.259Z,1.38
2017-05-26T13:03:14.496Z,6.00
2017-05-26T13:05:42.763Z,1.40
2017-05-26T13:08:11.002Z,1.34
2017-05-26T13:10:39.240Z,1.20
2017-05-26T13:13:07.500Z,1.48
2017-05-26T13:15:35.769Z,1.38
2017-05-26T13:18:04.033Z,1.50
2017-05-26T13:20:32.269Z,1.50
2017-05-26T13:23:00.529Z,1.10
2017-05-26T13:25:28.787Z,2.36
2017-05-26T13:27:57.039Z,1.60
2017-05-26T13:30:25.295Z,1.64
2017-05-26T13:32:53.545Z,1.22
2017-05-26T13:35:21.784Z,1.32
2017-05-26T13:37:50.050Z,1.36
2017-05-26T13:40:18.292Z,1.60
2017-05-26T13:42:46.541Z,1.50
2017-05-26T13:45:14.824Z,1.40
2017-05-26T13:47:43.060Z,1.60
2017-05-26T13:50:11.297Z,1.70
2017-05-26T13:52:39.556Z,1.26
2017-05-26T13:55:07.792Z,1.34
2017-05-26T13:57:36.043Z,1.42
2017-05-26T14:00:04.283Z,1.32
2017-05-26T14:02:32.553Z,1.70
2017-05-26T14:05:00.792Z,1.50
2017-05-26T14:07:29.044Z,1.44
2017-05-26T14:09:57.293Z,1.62
2017-05-26T14:12:25.529Z,1.60
2017-05-26T14:14:53.785Z,2.58
2017-05-26T14:17:22.028Z,2.38
2017-05-26T14:19:50.297Z,1.34
2017-05-26T14:22:18.599Z,1.60
2017-05-26T14:24:46.829Z,1.70
2017-05-26T14:27:15.082Z,1.40
2017-05-26T14:29:43.319Z,1.40
2017-05-26T14:32:11.579Z,1.40
2017-05-26T14:34:39.820Z,1.40
2017-05-26T14:37:08.069Z,1.70
2017-05-26T14:39:36.344Z,1.36
2017-05-26T14:42:04.582Z,1.42
2017-05-26T14:44:32.841Z,1.50
2017-05-26T14:47:01.076Z,1.40
2017-05-26T14:49:29.334Z,1.94
2017-05-26T14:51:57.599Z,1.22
2017-05-26T14:54:25.861Z,1.66
2017-05-26T14:56:54.128Z,1.64
2017-05-26T14:59:22.365Z,1.52
2017-05-26T15:01:50.620Z,1.36
2017-05-26T15:04:18.861Z,1.44
2017-05-26T15:06:47.110Z,1.54
2017-05-26T15:09:15.363Z,1.60
2017-05-26T15:11:43.628Z,1.54
2017-05-26T15:14:11.880Z,1.30
2017-05-26T15:16:40.141Z,1.72
2017-05-26T15:19:08.404Z,1.62
2017-05-26T15:21:36.640Z,1.58
2017-05-26T15:24:04.896Z,1.98
2017-05-26T15:26:33.137Z,1.40
2017-05-26T15:29:01.377Z,1.40
2017-05-26T15:31:29.654Z,1.40
2017-05-26T15:33:57.897Z,1.66
2017-05-26T15:36:25.376Z,2.00
2017-05-26T15:38:53.632Z,1.82
2017-05-26T15:41:21.877Z,5.74
2017-05-26T15:43:50.162Z,2.28
2017-05-26T15:46:18.408Z,2.02
2017-05-26T15:48:46.668Z,1.78
2017-05-26T15:51:14.920Z,2.00
2017-05-26T15:53:43.172Z,2.10
2017-05-26T15:56:11.432Z,1.40
2017-05-26T15:58:39.689Z,1.20
2017-05-26T16:01:07.948Z,1.86
2017-05-26T16:03:36.185Z,1.52
2017-05-26T16:06:04.439Z,1.84
2017-05-26T16:08:32.685Z,1.80
2017-05-26T16:11:00.956Z,1.52
2017-05-26T16:13:29.189Z,1.32
2017-05-26T16:15:57.440Z,2.24
2017-05-26T16:18:25.805Z,2.74
2017-05-26T16:20:54.041Z,6.28
2017-05-26T16:23:22.298Z,2.06
2017-05-26T16:25:50.539Z,1.52
2017-05-26T16:28:18.820Z,1.88
2017-05-26T16:30:47.072Z,1.64
2017-05-26T16:33:15.322Z,1.54
2017-05-26T16:35:43.589Z,1.72
2017-05-26T16:38:11.829Z,1.50
2017-05-26T16:40:40.113Z,1.74
2017-05-26T16:43:08.369Z,1.58
2017-05-26T16:45:36.625Z,1.86
2017-05-26T16:48:04.921Z,1.54
2017-05-26T16:50:33.169Z,2.00
2017-05-26T16:53:01.425Z,1.50
2017-05-26T16:55:29.697Z,1.66
2017-05-26T16:57:57.949Z,1.92
2017-05-26T17:00:26.318Z,1.70
2017-05-26T17:02:54.571Z,1.68
2017-05-26T17:05:22.829Z,1.40
2017-05-26T17:07:51.067Z,1.78
2017-05-26T17:10:19.332Z,2.08
2017-05-26T17:12:47.573Z,1.70
2017-05-26T17:15:15.822Z,1.64
2017-05-26T17:17:44.077Z,1.38
2017-05-26T17:20:12.314Z,2.08
2017-05-26T17:22:40.570Z,1.70
2017-05-26T17:25:08.813Z,1.88
2017-05-26T17:27:37.068Z,1.80
2017-05-26T17:30:05.334Z,1.64
2017-05-26T17:32:33.588Z,2.82
2017-05-26T17:35:01.852Z,1.78
2017-05-26T17:37:30.093Z,2.10
2017-05-26T17:39:58.362Z,1.42
2017-05-26T17:42:26.616Z,2.06
2017-05-26T17:44:54.862Z,2.20
2017-05-26T17:47:23.121Z,1.90
2017-05-26T17:49:51.354Z,1.50
2017-05-26T17:52:19.625Z,1.44
2017-05-26T17:54:47.860Z,1.50
2017-05-26T17:57:16.130Z,1.66
2017-05-26T17:59:44.398Z,1.94
2017-05-26T18:02:12.648Z,1.52
2017-05-26T18:04:40.880Z,1.70
2017-05-26T18:07:09.153Z,2.14
2017-05-26T18:09:37.388Z,1.58
2017-05-26T18:12:05.660Z,1.66
2017-05-26T18:14:33.897Z,1.70
2017-05-26T18:17:02.165Z,2.02
2017-05-26T18:19:30.405Z,1.64
2017-05-26T18:21:58.676Z,2.12
2017-05-26T18:24:26.921Z,2.10
2017-05-26T18:26:55.160Z,1.58
2017-05-26T18:29:23.428Z,1.92
2017-05-26T18:31:51.680Z,2.10
2017-05-26T18:34:19.938Z,1.96
2017-05-26T18:36:48.196Z,2.08
2017-05-26T18:39:16.443Z,1.80
2017-05-26T18:41:44.726Z,1.36
2017-05-26T18:44:12.984Z,2.00
2017-05-26T18:46:41.241Z,1.76
2017-05-26T18:49:09.496Z,2.00
2017-05-26T18:51:37.754Z,2.86
2017-05-26T18:54:05.992Z,1.88
2017-05-26T18:56:34.253Z,2.56
2017-05-26T18:59:02.500Z,2.24
2017-05-26T19:01:30.773Z,1.60
2017-05-26T19:03:59.014Z,1.78
2017-05-26T19:06:27.288Z,1.90
2017-05-26T19:08:55.532Z,1.88
2017-05-26T19:11:23.808Z,2.30
2017-05-26T19:13:52.076Z,1.78
2017-05-26T19:16:20.321Z,2.16
2017-05-26T19:18:48.595Z,1.92
2017-05-26T19:21:16.849Z,2.30
2017-05-26T19:23:45.116Z,2.38
2017-05-26T19:26:13.365Z,2.48
2017-05-26T19:28:41.607Z,2.18
2017-05-26T19:31:09.866Z,2.34
2017-05-26T19:33:38.114Z,2.38
2017-05-26T19:36:06.392Z,2.70
2017-05-26T19:38:34.634Z,2.14
2017-05-26T19:41:02.872Z,1.94
2017-05-26T19:43:31.141Z,2.00
2017-05-26T19:45:59.413Z,1.98
2017-05-26T19:48:27.669Z,2.24
2017-05-26T19:50:55.942Z,2.38
2017-05-26T19:53:24.197Z,2.10
2017-05-26T19:55:52.453Z,2.66
2017-05-26T19:58:20.708Z,2.22
2017-05-26T20:00:48.952Z,2.30
2017-05-26T20:03:17.205Z,2.28
2017-05-26T20:05:45.469Z,2.24
2017-05-26T20:08:13.712Z,1.82
2017-05-26T20:10:41.968Z,2.44
2017-05-26T20:13:10.208Z,2.34
2017-05-26T20:15:38.476Z,2.54
2017-05-26T20:18:06.728Z,1.86
2017-05-26T20:20:35.000Z,1.70
2017-05-26T20:23:03.289Z,2.14
2017-05-26T20:25:31.541Z,2.38
2017-05-26T20:27:59.809Z,2.12
2017-05-26T20:30:28.062Z,3.28
2017-05-26T20:32:56.341Z,2.62
2017-05-26T20:35:24.596Z,2.40
2017-05-26T20:37:52.877Z,3.92
2017-05-26T20:40:21.137Z,2.52
2017-05-26T20:42:49.389Z,2.34
2017-05-26T20:45:17.629Z,2.10
2017-05-26T20:47:45.900Z,1.86
2017-05-26T20:50:14.145Z,2.06
2017-05-26T20:52:42.388Z,1.80
2017-05-26T20:55:10.653Z,2.16
2017-05-26T20:57:38.901Z,2.20
2017-05-26T21:00:07.157Z,2.38
2017-05-26T21:02:35.421Z,2.40
2017-05-26T21:05:03.670Z,2.06
2017-05-26T21:07:31.936Z,2.26
2017-05-26T21:10:00.181Z,1.86
2017-05-26T21:12:28.453Z,2.10
2017-05-26T21:14:56.695Z,2.60
2017-05-26T21:17:24.957Z,2.58
2017-05-26T21:19:53.197Z,2.08
2017-05-26T21:22:21.448Z,2.36
2017-05-26T21:24:49.711Z,2.64
2017-05-26T21:27:17.953Z,3.30
2017-05-26T21:29:46.224Z,2.26
2017-05-26T21:32:14.468Z,1.98
2017-05-26T21:34:42.746Z,2.16
2017-05-26T21:37:11.018Z,2.34
2017-05-26T21:39:39.266Z,2.68
2017-05-26T21:42:07.536Z,2.04
2017-05-26T21:44:35.781Z,2.50
2017-05-26T21:47:04.048Z,2.18
2017-05-26T21:49:32.344Z,2.16
2017-05-26T21:52:00.613Z,2.42
2017-05-26T21:54:28.847Z,2.44
2017-05-26T21:56:57.084Z,2.74
2017-05-26T21:59:25.349Z,2.40
2017-05-26T22:01:53.597Z,2.56
2017-05-26T22:04:21.849Z,2.23
2017-05-26T22:06:50.149Z,2.48
2017-05-26T22:09:18.388Z,3.00
2017-05-26T22:11:46.629Z,2.46
2017-05-26T22:14:14.896Z,2.97
2017-05-26T22:16:43.169Z,3.02
2017-05-26T22:19:11.432Z,2.95
2017-05-26T22:21:39.689Z,2.93
2017-05-26T22:24:07.956Z,3.00
2017-05-26T22:26:36.216Z,3.50
2017-05-26T22:29:04.578Z,3.45
2017-05-26T22:31:32.825Z,3.55
2017-05-26T22:34:01.082Z,3.28
2017-05-26T22:36:29.355Z,3.13
2017-05-26T22:38:57.605Z,4.90
2017-05-26T22:41:25.873Z,3.65
2017-05-26T22:43:54.117Z,3.98
2017-05-26T22:46:22.388Z,3.75
2017-05-26T22:48:50.636Z,4.27
2017-05-26T22:51:18.917Z,3.83
2017-05-26T22:53:47.181Z,3.97
2017-05-26T22:56:15.440Z,4.77
2017-05-26T22:58:43.708Z,3.88
2017-05-26T23:01:11.958Z,4.48
2017-05-26T23:03:40.247Z,4.18
2017-05-26T23:06:08.503Z,3.85
2017-05-26T23:08:36.765Z,4.53
2017-05-26T23:11:05.012Z,5.37
2017-05-26T23:13:33.260Z,4.25
2017-05-26T23:16:01.532Z,5.20
2017-05-26T23:18:29.774Z,4.62
2017-05-26T23:20:58.041Z,5.48
2017-05-26T23:23:26.289Z,7.70
2017-05-26T23:25:54.535Z,6.47
2017-05-26T23:28:22.793Z,4.63
2017-05-26T23:30:51.033Z,5.38
2017-05-26T23:33:19.301Z,4.70
2017-05-26T23:35:47.544Z,3.60
2017-05-26T23:38:15.824Z,4.13
2017-05-26T23:40:44.072Z,4.17
2017-05-26T23:43:12.314Z,4.42
2017-05-26T23:45:40.577Z,4.68
2017-05-26T23:48:08.817Z,4.33
2017-05-26T23:50:37.085Z,4.33
2017-05-26T23:53:05.340Z,4.68
2017-05-26T23:55:33.637Z,4.85
2017-05-26T23:58:01.878Z,4.55
